createdAt,value
2019-02-22T00:00:05.483Z,99.90
2019-02-22T00:02:36.634Z,99.90
2019-02-22T00:05:07.043Z,99.90
2019-02-22T00:07:35.464Z,99.90
2019-02-22T00:10:13.265Z,99.90
2019-02-22T00:12:52.145Z,99.90
2019-02-22T00:15:20.571Z,99.90
2019-02-22T00:17:50.634Z,99.90
2019-02-22T00:20:20.936Z,99.90
2019-02-22T00:22:58.538Z,99.90
2019-02-22T00:25:27.209Z,99.90
2019-02-22T00:28:02.983Z,99.90
2019-02-22T00:30:36.302Z,99.90
2019-02-22T00:33:09.532Z,99.90
2019-02-22T00:35:38.206Z,99.90
2019-02-22T00:38:09.733Z,99.90
2019-02-22T00:40:41.713Z,99.90
2019-02-22T00:43:17.562Z,99.90
2019-02-22T00:45:51.811Z,99.90
2019-02-22T00:48:30.914Z,99.90
2019-02-22T00:51:02.070Z,99.90
2019-02-22T00:53:33.450Z,99.90
2019-02-22T00:56:01.957Z,99.90
2019-02-22T00:58:33.066Z,99.90
2019-02-22T01:01:01.494Z,99.90
2019-02-22T01:03:33.030Z,99.90
2019-02-22T01:06:01.446Z,99.90
2019-02-22T01:08:31.502Z,99.90
2019-02-22T01:11:00.094Z,99.90
2019-02-22T01:13:39.049Z,99.90
2019-02-22T01:16:10.518Z,99.90
2019-02-22T01:18:44.481Z,99.90
2019-02-22T01:21:13.422Z,99.90
2019-02-22T01:23:44.389Z,99.90
2019-02-22T01:26:12.822Z,99.90
2019-02-22T01:28:41.238Z,99.90
2019-02-22T01:31:15.032Z,99.90
2019-02-22T01:33:43.521Z,99.90
2019-02-22T01:36:17.686Z,99.90
2019-02-22T01:38:46.105Z,99.90
2019-02-22T01:41:14.977Z,99.90
2019-02-22T01:43:45.038Z,99.90
2019-02-22T01:46:13.648Z,99.90
2019-02-22T01:48:42.057Z,99.90
2019-02-22T01:51:16.303Z,99.90
2019-02-22T01:53:47.619Z,99.90
2019-02-22T01:56:27.387Z,99.90
2019-02-22T01:58:57.783Z,99.90
2019-02-22T02:01:38.022Z,99.90
2019-02-22T02:04:06.447Z,99.90
2019-02-22T02:06:37.825Z,99.90
2019-02-22T02:09:06.390Z,99.90
2019-02-22T02:11:34.811Z,99.90
2019-02-22T02:14:06.295Z,99.90
2019-02-22T02:16:37.110Z,99.90
2019-02-22T02:19:09.026Z,99.90
2019-02-22T02:21:42.206Z,99.90
2019-02-22T02:24:10.798Z,99.90
2019-02-22T02:26:40.998Z,99.90
2019-02-22T02:29:18.162Z,99.90
2019-02-22T02:31:46.566Z,99.90
2019-02-22T02:34:16.489Z,99.90
2019-02-22T02:36:45.182Z,99.90
2019-02-22T02:39:14.006Z,99.90
2019-02-22T02:41:42.425Z,99.90
2019-02-22T02:44:13.514Z,99.90
2019-02-22T02:46:47.705Z,99.90
2019-02-22T02:49:21.989Z,99.90
2019-02-22T02:51:50.411Z,99.90
2019-02-22T02:54:18.854Z,99.90
2019-02-22T02:56:51.844Z,99.90
2019-02-22T02:59:20.611Z,99.90
2019-02-22T03:01:51.951Z,99.90
2019-02-22T03:04:20.382Z,99.90
2019-02-22T03:06:54.782Z,99.90
2019-02-22T03:09:23.217Z,99.90
2019-02-22T03:11:53.426Z,99.90
2019-02-22T03:14:25.822Z,99.90
2019-02-22T03:16:56.909Z,99.90
2019-02-22T03:19:31.006Z,99.90
2019-02-22T03:22:02.228Z,99.90
2019-02-22T03:24:30.675Z,99.90
2019-02-22T03:27:04.803Z,99.90
2019-02-22T03:29:36.158Z,99.90
2019-02-22T03:32:07.248Z,99.90
2019-02-22T03:34:38.602Z,99.90
2019-02-22T03:37:12.674Z,99.90
2019-02-22T03:39:50.122Z,99.90
2019-02-22T03:42:20.923Z,99.90
2019-02-22T03:44:55.118Z,99.90
2019-02-22T03:47:25.229Z,99.90
2019-02-22T03:49:53.671Z,99.90
2019-02-22T03:52:26.391Z,99.90
2019-02-22T03:54:57.857Z,99.90
2019-02-22T03:57:29.053Z,99.90
2019-02-22T04:00:00.541Z,99.90
2019-02-22T04:02:31.924Z,99.90
2019-02-22T04:05:01.996Z,99.90
2019-02-22T04:07:33.458Z,99.90
2019-02-22T04:10:06.485Z,99.90
2019-02-22T04:12:40.679Z,99.90
2019-02-22T04:15:12.781Z,99.90
2019-02-22T04:17:41.210Z,99.90
2019-02-22T04:20:09.639Z,99.90
2019-02-22T04:22:46.431Z,99.90
2019-02-22T04:25:17.779Z,99.90
2019-02-22T04:27:51.635Z,99.90
2019-02-22T04:30:23.010Z,99.90
2019-02-22T04:32:54.260Z,99.90
2019-02-22T04:35:26.995Z,99.90
2019-02-22T04:37:58.341Z,99.90
2019-02-22T04:40:30.529Z,99.90
2019-02-22T04:43:03.293Z,99.90
2019-02-22T04:45:32.974Z,99.90
2019-02-22T04:48:01.434Z,99.90
2019-02-22T04:50:31.550Z,99.90
2019-02-22T04:53:04.610Z,99.90
2019-02-22T04:55:35.764Z,99.90
2019-02-22T04:58:08.669Z,99.90
2019-02-22T05:00:41.659Z,99.90
2019-02-22T05:03:11.733Z,99.90
2019-02-22T05:05:40.154Z,99.90
2019-02-22T05:08:18.836Z,99.90
2019-02-22T05:10:48.881Z,99.90
2019-02-22T05:13:17.475Z,99.90
2019-02-22T05:15:48.842Z,99.90
2019-02-22T05:18:19.922Z,99.90
2019-02-22T05:20:49.957Z,99.90
2019-02-22T05:23:21.555Z,99.90
2019-02-22T05:25:49.970Z,99.90
2019-02-22T05:28:25.302Z,99.90
2019-02-22T05:30:53.722Z,99.90
2019-02-22T05:33:28.198Z,99.90
2019-02-22T05:35:59.966Z,99.90
2019-02-22T05:38:29.397Z,99.90
2019-02-22T05:41:00.765Z,99.90
2019-02-22T05:43:34.550Z,99.90
2019-02-22T05:46:11.466Z,99.90
2019-02-22T05:48:39.927Z,99.90
2019-02-22T05:51:14.265Z,99.90
2019-02-22T05:53:42.682Z,99.90
2019-02-22T05:56:22.023Z,99.90
2019-02-22T05:58:52.344Z,99.90
2019-02-22T06:01:23.659Z,99.90
2019-02-22T06:04:00.918Z,99.90
2019-02-22T06:06:32.046Z,99.90
2019-02-22T06:09:02.108Z,99.90
2019-02-22T06:11:33.022Z,99.90
2019-02-22T06:14:04.371Z,99.90
2019-02-22T06:16:40.326Z,99.90
2019-02-22T06:19:11.546Z,99.90
2019-02-22T06:21:41.944Z,99.90
2019-02-22T06:24:10.119Z,99.90
2019-02-22T06:26:41.217Z,99.90
2019-02-22T06:29:12.561Z,99.90
2019-02-22T06:31:43.727Z,99.90
2019-02-22T06:34:13.793Z,99.90
2019-02-22T06:36:42.217Z,99.90
2019-02-22T06:39:13.307Z,99.90
2019-02-22T06:41:43.313Z,99.90
2019-02-22T06:44:14.453Z,99.90
2019-02-22T06:46:45.909Z,99.90
2019-02-22T06:49:16.741Z,99.90
2019-02-22T06:51:45.153Z,99.90
2019-02-22T06:54:16.293Z,99.90
2019-02-22T06:56:46.349Z,99.90
2019-02-22T06:59:20.434Z,99.90
2019-02-22T07:01:50.129Z,99.90
2019-02-22T07:04:21.591Z,99.90
2019-02-22T07:06:55.489Z,99.90
2019-02-22T07:09:25.554Z,99.90
2019-02-22T07:12:07.381Z,99.90
2019-02-22T07:14:36.290Z,99.90
2019-02-22T07:17:12.268Z,99.90
2019-02-22T07:19:48.248Z,99.90
2019-02-22T07:22:16.714Z,99.90
2019-02-22T07:24:50.292Z,99.90
2019-02-22T07:27:27.014Z,99.90
2019-02-22T07:29:55.455Z,99.90
2019-02-22T07:32:29.818Z,99.90
2019-02-22T07:34:58.249Z,99.90
2019-02-22T07:37:32.670Z,99.90
2019-02-22T07:40:02.539Z,99.90
2019-02-22T07:42:34.002Z,99.90
2019-02-22T07:45:02.433Z,99.90
2019-02-22T07:47:35.420Z,99.90
2019-02-22T07:50:12.198Z,99.90
2019-02-22T07:52:40.615Z,99.90
2019-02-22T07:55:15.746Z,99.90
2019-02-22T07:57:45.787Z,99.90
2019-02-22T08:00:19.818Z,99.90
2019-02-22T08:02:48.238Z,99.90
2019-02-22T08:05:23.769Z,99.90
2019-02-22T08:08:03.565Z,99.90
2019-02-22T08:10:39.635Z,99.90
2019-02-22T08:13:19.172Z,99.90
2019-02-22T08:15:39.866Z,99.90
2019-02-22T08:18:08.333Z,99.90
2019-02-22T08:20:39.682Z,99.90
2019-02-22T08:23:09.722Z,99.80
2019-02-22T08:25:43.972Z,99.60
2019-02-22T08:28:12.423Z,99.50
2019-02-22T08:30:42.478Z,99.50
2019-02-22T08:33:14.128Z,99.80
2019-02-22T08:35:46.509Z,99.90
2019-02-22T08:38:20.235Z,99.90
2019-02-22T08:40:53.238Z,99.90
2019-02-22T08:43:31.201Z,99.90
2019-02-22T08:46:00.430Z,99.90
2019-02-22T08:48:32.716Z,99.90
2019-02-22T08:51:06.884Z,99.90
2019-02-22T08:53:37.990Z,99.90
2019-02-22T08:56:09.547Z,99.90
2019-02-22T08:58:42.505Z,99.90
2019-02-22T09:01:22.238Z,99.90
2019-02-22T09:03:51.337Z,99.90
2019-02-22T09:06:25.997Z,99.90
2019-02-22T09:08:58.934Z,99.90
2019-02-22T09:11:27.354Z,99.90
2019-02-22T09:13:57.422Z,98.90
2019-02-22T09:16:31.978Z,98.50
2019-02-22T09:19:03.321Z,98.50
2019-02-22T09:21:34.391Z,97.90
2019-02-22T09:24:05.571Z,97.90
2019-02-22T09:26:33.978Z,97.20
2019-02-22T09:29:02.403Z,97.00
2019-02-22T09:31:35.018Z,96.30
2019-02-22T09:34:05.066Z,95.00
2019-02-22T09:36:33.726Z,94.70
2019-02-22T09:39:08.560Z,94.70
2019-02-22T09:41:36.978Z,95.00
2019-02-22T09:44:08.315Z,95.50
2019-02-22T09:46:39.638Z,96.20
2019-02-22T09:49:09.700Z,96.50
2019-02-22T09:51:45.354Z,96.60
2019-02-22T09:54:13.786Z,97.20
2019-02-22T09:56:44.082Z,96.80
2019-02-22T09:59:18.535Z,97.00
2019-02-22T10:01:47.212Z,97.00
2019-02-22T10:04:15.634Z,96.90
2019-02-22T10:06:45.694Z,96.50
2019-02-22T10:09:14.130Z,96.10
2019-02-22T10:11:48.497Z,95.90
2019-02-22T10:14:16.921Z,95.90
2019-02-22T10:16:48.046Z,96.10
2019-02-22T10:19:16.475Z,96.20
2019-02-22T10:21:47.559Z,96.10
2019-02-22T10:24:18.645Z,96.30
2019-02-22T10:26:49.983Z,96.50
2019-02-22T10:29:20.282Z,96.60
2019-02-22T10:31:48.704Z,96.80
2019-02-22T10:34:22.922Z,96.90
2019-02-22T10:36:55.636Z,96.90
2019-02-22T10:39:26.966Z,97.20
2019-02-22T10:42:02.114Z,97.40
2019-02-22T10:44:33.326Z,97.50
2019-02-22T10:47:07.834Z,97.60
2019-02-22T10:49:36.738Z,97.50
2019-02-22T10:52:06.795Z,97.60
2019-02-22T10:54:35.214Z,97.60
2019-02-22T10:57:12.051Z,97.70
2019-02-22T10:59:42.102Z,97.70
2019-02-22T11:02:12.243Z,97.80
2019-02-22T11:04:40.663Z,97.90
2019-02-22T11:07:18.141Z,98.10
2019-02-22T11:09:49.470Z,98.10
2019-02-22T11:12:21.670Z,97.90
2019-02-22T11:14:53.161Z,97.90
2019-02-22T11:17:24.741Z,97.80
2019-02-22T11:19:56.430Z,97.20
2019-02-22T11:22:27.804Z,97.10
2019-02-22T11:24:56.218Z,96.80
2019-02-22T11:27:24.777Z,96.80
2019-02-22T11:29:57.490Z,96.80
2019-02-22T11:32:29.081Z,96.40
2019-02-22T11:35:00.329Z,95.90
2019-02-22T11:37:37.165Z,95.50
2019-02-22T11:40:12.458Z,95.40
2019-02-22T11:42:40.882Z,95.30
2019-02-22T11:45:10.242Z,95.60
2019-02-22T11:47:40.298Z,95.90
2019-02-22T11:50:12.425Z,96.30
2019-02-22T11:52:45.309Z,96.60
2019-02-22T11:55:14.130Z,96.80
2019-02-22T11:57:44.207Z,96.50
2019-02-22T12:00:20.706Z,96.60
2019-02-22T12:02:52.094Z,96.60
2019-02-22T12:05:20.498Z,96.50
2019-02-22T12:07:48.935Z,96.20
2019-02-22T12:10:20.139Z,95.90
2019-02-22T12:12:48.645Z,95.60
2019-02-22T12:15:31.189Z,95.60
2019-02-22T12:17:59.671Z,95.60
2019-02-22T12:20:31.306Z,95.70
2019-02-22T12:23:03.675Z,96.00
2019-02-22T12:25:32.093Z,96.40
2019-02-22T12:28:03.493Z,96.70
2019-02-22T12:30:31.898Z,97.00
2019-02-22T12:33:03.487Z,97.70
2019-02-22T12:35:42.253Z,97.60
2019-02-22T12:38:10.741Z,98.40
2019-02-22T12:40:39.169Z,98.40
2019-02-22T12:43:10.502Z,98.80
2019-02-22T12:45:38.926Z,99.00
2019-02-22T12:48:13.159Z,99.10
2019-02-22T12:50:41.574Z,98.70
2019-02-22T12:53:11.261Z,98.10
2019-02-22T12:55:42.290Z,97.20
2019-02-22T12:58:10.713Z,95.60
2019-02-22T13:00:39.211Z,95.10
2019-02-22T13:03:09.679Z,94.50
2019-02-22T13:05:45.148Z,94.20
2019-02-22T13:08:13.690Z,93.90
2019-02-22T13:10:42.101Z,93.40
2019-02-22T13:13:10.534Z,93.30
2019-02-22T13:15:47.638Z,93.30
2019-02-22T13:18:17.703Z,93.00
2019-02-22T13:20:53.180Z,93.20
2019-02-22T13:23:20.850Z,93.50
2019-02-22T13:25:49.258Z,93.80
2019-02-22T13:28:18.557Z,93.70
2019-02-22T13:30:49.982Z,93.90
2019-02-22T13:33:21.353Z,93.90
2019-02-22T13:35:49.758Z,93.20
2019-02-22T13:38:19.726Z,92.50
2019-02-22T13:40:49.946Z,91.50
2019-02-22T13:43:21.415Z,91.00
2019-02-22T13:45:49.858Z,91.50
2019-02-22T13:48:18.286Z,90.70
2019-02-22T13:50:46.701Z,90.00
2019-02-22T13:53:15.126Z,88.10
2019-02-22T13:55:46.255Z,88.70
2019-02-22T13:58:14.678Z,88.90
2019-02-22T14:00:46.035Z,88.40
2019-02-22T14:03:17.506Z,90.10
2019-02-22T14:05:47.569Z,90.70
2019-02-22T14:08:28.822Z,91.20
2019-02-22T14:11:07.589Z,92.00
2019-02-22T14:13:36.006Z,92.90
2019-02-22T14:16:06.054Z,93.80
2019-02-22T14:18:38.826Z,94.10
2019-02-22T14:21:11.974Z,95.00
2019-02-22T14:23:43.347Z,95.40
2019-02-22T14:26:12.784Z,96.10
2019-02-22T14:28:42.806Z,96.70
2019-02-22T14:31:12.862Z,96.70
2019-02-22T14:33:42.905Z,96.90
2019-02-22T14:36:16.874Z,97.20
2019-02-22T14:38:47.966Z,97.20
2019-02-22T14:41:19.774Z,97.30
2019-02-22T14:43:49.834Z,97.10
2019-02-22T14:46:25.891Z,97.10
2019-02-22T14:48:50.431Z,97.20
2019-02-22T14:51:21.887Z,96.80
2019-02-22T14:53:53.242Z,97.40
2019-02-22T14:56:21.661Z,97.60
2019-02-22T14:58:50.079Z,97.80
2019-02-22T15:01:18.499Z,97.70
2019-02-22T15:03:47.130Z,98.10
2019-02-22T15:06:18.339Z,98.30
2019-02-22T15:08:53.109Z,98.40
2019-02-22T15:11:27.903Z,98.40
2019-02-22T15:13:56.535Z,98.40
2019-02-22T15:16:29.439Z,98.40
2019-02-22T15:18:57.950Z,98.40
2019-02-22T15:21:29.089Z,98.60
2019-02-22T15:23:57.506Z,98.60
2019-02-22T15:26:27.596Z,98.40
2019-02-22T15:28:58.856Z,98.10
2019-02-22T15:31:35.866Z,97.90
2019-02-22T15:34:00.435Z,98.10
2019-02-22T15:36:34.507Z,98.00
2019-02-22T15:39:11.661Z,98.20
2019-02-22T15:41:43.022Z,98.30
2019-02-22T15:44:12.635Z,98.40
2019-02-22T15:46:43.808Z,97.90
2019-02-22T15:49:17.193Z,98.00
2019-02-22T15:51:45.751Z,97.90
2019-02-22T15:54:14.180Z,97.80
2019-02-22T15:56:42.591Z,98.30
2019-02-22T15:59:12.414Z,98.30
2019-02-22T16:01:55.190Z,98.50
2019-02-22T16:04:34.754Z,98.30
2019-02-22T16:07:03.233Z,98.50
2019-02-22T16:09:34.574Z,97.90
2019-02-22T16:12:03.008Z,97.50
2019-02-22T16:14:37.258Z,97.90
2019-02-22T16:17:12.622Z,98.20
2019-02-22T16:19:46.390Z,98.20
2019-02-22T16:22:14.807Z,98.20
2019-02-22T16:24:46.197Z,98.50
2019-02-22T16:27:14.653Z,98.70
2019-02-22T16:29:43.180Z,98.70
2019-02-22T16:32:14.637Z,98.80
2019-02-22T16:34:44.214Z,98.90
2019-02-22T16:37:13.299Z,98.60
2019-02-22T16:39:41.806Z,98.70
2019-02-22T16:42:10.294Z,98.40
2019-02-22T16:44:40.393Z,98.30
2019-02-22T16:47:08.843Z,98.60
2019-02-22T16:49:37.414Z,98.80
2019-02-22T16:52:08.869Z,99.00
2019-02-22T16:54:40.242Z,99.10
2019-02-22T16:57:13.069Z,99.40
2019-02-22T16:59:41.542Z,99.60
2019-02-22T17:02:11.894Z,99.50
2019-02-22T17:04:43.109Z,99.10
2019-02-22T17:07:11.510Z,99.00
2019-02-22T17:09:42.628Z,98.90
2019-02-22T17:12:11.045Z,99.00
2019-02-22T17:14:42.114Z,98.60
2019-02-22T17:17:16.386Z,99.00
2019-02-22T17:19:47.596Z,99.20
2019-02-22T17:22:16.015Z,99.40
2019-02-22T17:24:47.409Z,99.50
2019-02-22T17:27:15.853Z,99.60
2019-02-22T17:29:47.294Z,99.40
2019-02-22T17:32:18.754Z,99.70
2019-02-22T17:34:53.136Z,99.50
2019-02-22T17:37:21.544Z,99.70
2019-02-22T17:39:49.969Z,99.60
2019-02-22T17:42:30.226Z,99.60
2019-02-22T17:44:58.657Z,99.80
2019-02-22T17:47:28.710Z,99.60
2019-02-22T17:50:01.426Z,99.70
2019-02-22T17:52:31.801Z,99.40
2019-02-22T17:54:59.997Z,99.50
2019-02-22T17:57:28.415Z,99.40
2019-02-22T17:59:56.833Z,99.40
2019-02-22T18:02:29.284Z,99.60
2019-02-22T18:04:57.707Z,99.80
2019-02-22T18:07:32.250Z,99.60
2019-02-22T18:10:02.003Z,99.00
2019-02-22T18:12:33.750Z,99.10
2019-02-22T18:15:02.503Z,98.90
2019-02-22T18:17:30.922Z,98.90
2019-02-22T18:19:59.346Z,99.20
2019-02-22T18:22:33.656Z,99.30
2019-02-22T18:25:02.081Z,99.00
2019-02-22T18:27:52.640Z,99.20
2019-02-22T18:30:22.014Z,99.60
2019-02-22T18:32:53.366Z,99.60
2019-02-22T18:35:23.430Z,99.30
2019-02-22T18:37:54.294Z,99.30
2019-02-22T18:40:24.353Z,99.40
2019-02-22T18:42:52.774Z,99.70
2019-02-22T18:45:24.138Z,99.50
2019-02-22T18:47:55.210Z,99.50
2019-02-22T18:50:23.918Z,99.80
2019-02-22T18:53:01.434Z,99.40
2019-02-22T18:55:31.208Z,99.20
2019-02-22T18:57:59.667Z,99.10
2019-02-22T19:00:32.685Z,99.40
2019-02-22T19:03:02.762Z,99.60
2019-02-22T19:05:37.367Z,99.60
2019-02-22T19:08:08.553Z,99.80
2019-02-22T19:10:39.910Z,99.90
2019-02-22T19:13:13.653Z,99.90
2019-02-22T19:15:44.882Z,99.90
2019-02-22T19:18:14.941Z,99.90
2019-02-22T19:20:45.002Z,99.90
2019-02-22T19:23:16.182Z,99.90
2019-02-22T19:25:50.326Z,99.90
2019-02-22T19:28:18.757Z,99.90
2019-02-22T19:30:50.304Z,99.90
2019-02-22T19:33:23.034Z,99.90
2019-02-22T19:35:54.446Z,99.90
2019-02-22T19:38:22.879Z,99.90
2019-02-22T19:40:57.268Z,99.90
2019-02-22T19:43:29.952Z,99.90
2019-02-22T19:45:58.369Z,99.90
2019-02-22T19:48:26.913Z,99.90
2019-02-22T19:51:00.531Z,99.90
2019-02-22T19:53:28.959Z,99.90
2019-02-22T19:56:03.441Z,99.50
2019-02-22T19:58:31.870Z,99.50
2019-02-22T20:01:05.283Z,99.90
2019-02-22T20:03:35.122Z,99.90
2019-02-22T20:06:06.452Z,99.90
2019-02-22T20:08:40.502Z,99.90
2019-02-22T20:11:19.102Z,99.90
2019-02-22T20:13:39.088Z,99.90
2019-02-22T20:16:12.050Z,99.90
2019-02-22T20:18:45.181Z,99.90
2019-02-22T20:21:15.130Z,99.90
2019-02-22T20:23:43.838Z,99.90
2019-02-22T20:26:12.250Z,99.90
2019-02-22T20:28:40.757Z,99.90
2019-02-22T20:31:19.914Z,99.90
2019-02-22T20:33:43.959Z,99.90
2019-02-22T20:36:28.048Z,99.90
2019-02-22T20:38:56.635Z,99.90
2019-02-22T20:41:25.047Z,99.90
2019-02-22T20:43:56.237Z,99.90
2019-02-22T20:46:27.377Z,99.90
2019-02-22T20:49:04.745Z,99.90
2019-02-22T20:51:33.165Z,99.90
2019-02-22T20:54:01.966Z,99.90
2019-02-22T20:56:33.669Z,99.90
2019-02-22T20:59:05.194Z,99.90
2019-02-22T21:01:36.810Z,99.90
2019-02-22T21:04:11.035Z,99.90
2019-02-22T21:06:42.134Z,99.90
2019-02-22T21:09:16.814Z,99.90
2019-02-22T21:11:48.325Z,99.90
2019-02-22T21:14:16.773Z,99.90
2019-02-22T21:16:45.225Z,99.90
2019-02-22T21:19:16.305Z,99.90
2019-02-22T21:21:46.422Z,99.90
2019-02-22T21:24:20.413Z,99.90
2019-02-22T21:26:49.301Z,99.90
2019-02-22T21:29:26.221Z,99.60
2019-02-22T21:32:02.305Z,99.60
2019-02-22T21:34:35.058Z,99.80
2019-02-22T21:37:06.577Z,99.80
2019-02-22T21:39:40.894Z,99.60
2019-02-22T21:42:19.829Z,99.90
2019-02-22T21:44:43.527Z,99.90
2019-02-22T21:47:11.953Z,99.90
2019-02-22T21:49:44.705Z,99.90
2019-02-22T21:52:14.774Z,99.90
2019-02-22T21:54:53.654Z,99.90
2019-02-22T21:57:22.081Z,99.90
2019-02-22T21:59:58.900Z,99.90
2019-02-22T22:02:27.390Z,99.90
2019-02-22T22:04:56.181Z,99.90
2019-02-22T22:07:27.238Z,99.90
2019-02-22T22:09:57.294Z,99.90
2019-02-22T22:12:25.717Z,99.90
2019-02-22T22:14:54.130Z,99.90
2019-02-22T22:17:22.639Z,99.90
2019-02-22T22:19:54.117Z,99.90
2019-02-22T22:22:25.953Z,99.90
2019-02-22T22:25:00.030Z,99.90
2019-02-22T22:27:28.702Z,99.90
2019-02-22T22:30:02.894Z,99.90
2019-02-22T22:32:35.469Z,99.90
2019-02-22T22:35:07.023Z,99.90
2019-02-22T22:37:44.058Z,99.90
2019-02-22T22:40:15.446Z,99.90
2019-02-22T22:42:44.362Z,99.90
2019-02-22T22:45:18.447Z,99.90
2019-02-22T22:47:47.945Z,99.90
2019-02-22T22:50:18.992Z,99.90
2019-02-22T22:52:49.056Z,99.90
2019-02-22T22:55:20.495Z,99.90
2019-02-22T22:58:00.860Z,99.90
2019-02-22T23:00:51.607Z,99.90
2019-02-22T23:03:20.992Z,99.90
2019-02-22T23:05:49.414Z,99.90
2019-02-22T23:08:20.297Z,99.90
2019-02-22T23:10:48.781Z,99.90
2019-02-22T23:13:17.282Z,99.90
2019-02-22T23:15:45.706Z,99.90
2019-02-22T23:18:14.129Z,99.80
2019-02-22T23:20:42.553Z,99.50
2019-02-22T23:23:14.832Z,99.90
2019-02-22T23:25:54.949Z,99.90
2019-02-22T23:28:27.109Z,99.90
2019-02-22T23:31:09.873Z,99.90
2019-02-22T23:33:52.705Z,99.90
2019-02-22T23:36:24.143Z,99.90
2019-02-22T23:39:05.660Z,99.90
2019-02-22T23:41:37.154Z,99.90
2019-02-22T23:44:05.653Z,99.90
2019-02-22T23:46:39.494Z,99.90
2019-02-22T23:49:13.086Z,99.90
2019-02-22T23:51:48.406Z,99.90
2019-02-22T23:54:16.842Z,99.90
2019-02-22T23:56:50.829Z,99.90
2019-02-22T23:59:22.369Z,99.90
